createdAt,value
2022-10-22T00:02:08.169Z,99819.28
2022-10-22T00:04:54.636Z,99814.13
2022-10-22T00:07:40.599Z,99835.41
2022-10-22T00:10:26.473Z,99825.09
2022-10-22T00:13:13.191Z,99833.31
2022-10-22T00:15:58.869Z,99838.81
2022-10-22T00:18:44.421Z,99830.59
2022-10-22T00:21:30.764Z,99822.34
2022-10-22T00:24:16.982Z,99839.28
2022-10-22T00:27:04.112Z,99839.28
2022-10-22T00:29:50.425Z,99828.00
2022-10-22T00:32:36.072Z,99846.88
2022-10-22T00:35:22.129Z,99823.00
2022-10-22T00:38:07.952Z,99829.63
2022-10-22T00:40:54.411Z,99826.38
2022-10-22T00:44:00.357Z,99804.94
2022-10-22T00:46:46.006Z,99810.41
2022-10-22T00:49:31.527Z,99799.78
2022-10-22T00:52:17.707Z,99786.22
2022-10-22T00:55:03.553Z,99788.63
2022-10-22T00:57:50.001Z,99784.28
2022-10-22T01:00:36.079Z,99796.88
2022-10-22T01:03:22.504Z,99800.09
2022-10-22T01:06:08.367Z,99798.47
2022-10-22T01:09:19.399Z,99796.53
2022-10-22T01:12:05.084Z,99798.16
2022-10-22T01:15:12.912Z,99780.41
2022-10-22T01:18:03.433Z,99790.25
2022-10-22T01:21:19.197Z,99774.28
2022-10-22T01:24:13.790Z,99792.03
2022-10-22T01:27:23.878Z,99766.84
2022-10-22T01:30:14.443Z,99769.13
2022-10-22T01:33:04.025Z,99758.63
2022-10-22T01:35:50.202Z,99746.69
2022-10-22T01:38:36.465Z,99743.78
2022-10-22T01:41:21.855Z,99748.81
2022-10-22T01:44:07.617Z,99755.72
2022-10-22T01:47:05.190Z,99769.44
2022-10-22T01:50:10.028Z,99767.84
2022-10-22T01:53:17.359Z,99763.78
2022-10-22T01:56:15.562Z,99766.88
2022-10-22T01:59:25.204Z,99759.13
2022-10-22T02:02:17.456Z,99762.50
2022-10-22T02:05:11.859Z,99743.50
2022-10-22T02:08:03.426Z,99739.78
2022-10-22T02:10:49.713Z,99753.81
2022-10-22T02:13:41.650Z,99742.66
2022-10-22T02:16:34.608Z,99747.34
2022-10-22T02:19:25.906Z,99749.75
2022-10-22T02:22:11.517Z,99750.59
2022-10-22T02:24:57.730Z,99770.88
2022-10-22T02:27:52.180Z,99754.28
2022-10-22T02:30:41.507Z,99756.84
2022-10-22T02:33:30.828Z,99769.28
2022-10-22T02:36:17.439Z,99751.22
2022-10-22T02:39:03.867Z,99761.53
2022-10-22T02:41:50.102Z,99747.84
2022-10-22T02:44:35.686Z,99742.50
2022-10-22T02:47:22.386Z,99737.66
2022-10-22T02:50:10.309Z,99733.97
2022-10-22T02:52:56.816Z,99747.34
2022-10-22T02:55:43.023Z,99750.88
2022-10-22T02:58:29.642Z,99742.34
2022-10-22T03:01:16.247Z,99773.31
2022-10-22T03:04:02.578Z,99775.41
2022-10-22T03:06:49.101Z,99772.81
2022-10-22T03:09:35.287Z,99783.78
2022-10-22T03:12:21.353Z,99785.44
2022-10-22T03:15:07.195Z,99778.16
2022-10-22T03:17:52.696Z,99803.81
2022-10-22T03:20:39.038Z,99790.25
2022-10-22T03:23:24.495Z,99785.91
2022-10-22T03:26:12.683Z,99781.19
2022-10-22T03:28:58.225Z,99788.16
2022-10-22T03:31:44.163Z,99787.81
2022-10-22T03:34:29.660Z,99775.91
2022-10-22T03:37:15.258Z,99775.06
2022-10-22T03:40:01.094Z,99769.09
2022-10-22T03:42:47.241Z,99755.09
2022-10-22T03:45:32.658Z,99761.06
2022-10-22T03:48:18.710Z,99770.41
2022-10-22T03:51:04.530Z,99762.19
2022-10-22T03:53:50.704Z,99779.44
2022-10-22T03:56:36.556Z,99767.19
2022-10-22T03:59:22.166Z,99770.06
2022-10-22T04:02:07.866Z,99786.03
2022-10-22T04:04:53.625Z,99781.84
2022-10-22T04:07:39.213Z,99789.28
2022-10-22T04:10:25.737Z,99800.41
2022-10-22T04:13:11.302Z,99789.13
2022-10-22T04:16:16.244Z,99787.34
2022-10-22T04:19:02.115Z,99758.47
2022-10-22T04:21:48.387Z,99765.41
2022-10-22T04:24:34.134Z,99769.28
2022-10-22T04:27:19.769Z,99758.31
2022-10-22T04:30:06.728Z,99764.91
2022-10-22T04:32:52.877Z,99778.16
2022-10-22T04:35:39.847Z,99770.72
2022-10-22T04:38:25.603Z,99777.97
2022-10-22T04:41:16.432Z,99762.66
2022-10-22T04:44:02.749Z,99753.81
2022-10-22T04:46:48.434Z,99773.31
2022-10-22T04:49:34.224Z,99781.22
2022-10-22T04:52:20.033Z,99763.63
2022-10-22T04:55:05.849Z,99778.81
2022-10-22T04:57:51.358Z,99767.19
2022-10-22T05:00:37.545Z,99782.81
2022-10-22T05:03:25.156Z,99783.66
2022-10-22T05:09:01.890Z,99773.47
2022-10-22T05:11:50.803Z,99799.75
2022-10-22T05:14:36.280Z,99808.00
2022-10-22T05:17:22.103Z,99802.19
2022-10-22T05:20:08.482Z,99806.38
2022-10-22T05:22:54.301Z,99788.16
2022-10-22T05:25:39.900Z,99801.06
2022-10-22T05:28:25.408Z,99799.63
2022-10-22T05:31:12.405Z,99796.22
2022-10-22T05:33:58.090Z,99782.34
2022-10-22T05:36:43.744Z,99785.56
2022-10-22T05:39:29.840Z,99802.03
2022-10-22T05:42:15.780Z,99790.25
2022-10-22T05:45:01.434Z,99803.47
2022-10-22T05:47:46.839Z,99807.50
2022-10-22T05:50:32.840Z,99816.06
2022-10-22T05:53:18.584Z,99827.50
2022-10-22T05:56:07.845Z,99830.25
2022-10-22T05:58:53.990Z,99835.75
2022-10-22T06:01:41.009Z,99836.88
2022-10-22T06:04:26.726Z,99831.72
2022-10-22T06:07:15.363Z,99809.13
2022-10-22T06:10:01.137Z,99831.72
2022-10-22T06:12:48.328Z,99840.44
2022-10-22T06:15:34.274Z,99834.28
2022-10-22T06:18:20.561Z,99831.53
2022-10-22T06:21:11.571Z,99832.50
2022-10-22T06:23:58.669Z,99841.06
2022-10-22T06:26:44.946Z,99842.03
2022-10-22T06:29:30.596Z,99815.09
2022-10-22T06:32:16.228Z,99849.94
2022-10-22T06:35:02.247Z,99858.19
2022-10-22T06:37:47.911Z,99852.19
2022-10-22T06:40:33.987Z,99842.69
2022-10-22T06:43:19.684Z,99849.78
2022-10-22T06:46:08.844Z,99867.53
2022-10-22T06:48:57.352Z,99839.75
2022-10-22T06:51:43.330Z,99861.38
2022-10-22T06:54:28.944Z,99870.09
2022-10-22T06:57:14.820Z,99863.47
2022-10-22T07:00:00.238Z,99873.31
2022-10-22T07:02:56.405Z,99890.75
2022-10-22T07:05:44.486Z,99883.16
2022-10-22T07:08:30.789Z,99888.50
2022-10-22T07:11:17.525Z,99884.94
2022-10-22T07:14:04.103Z,99893.50
2022-10-22T07:16:49.978Z,99882.53
2022-10-22T07:19:35.828Z,99903.03
2022-10-22T07:22:21.886Z,99894.00
2022-10-22T07:25:08.669Z,99912.88
2022-10-22T07:27:54.519Z,99895.75
2022-10-22T07:30:40.545Z,99901.72
2022-10-22T07:33:27.175Z,99906.09
2022-10-22T07:36:17.774Z,99908.84
2022-10-22T07:39:04.192Z,99879.47
2022-10-22T07:41:50.671Z,99907.72
2022-10-22T07:44:36.331Z,99912.84
2022-10-22T07:47:22.457Z,99895.59
2022-10-22T07:50:08.355Z,99910.44
2022-10-22T07:52:56.120Z,99912.19
2022-10-22T07:55:43.733Z,99903.00
2022-10-22T07:58:29.707Z,99922.41
2022-10-22T08:01:15.380Z,99927.53
2022-10-22T08:04:01.556Z,99914.31
2022-10-22T08:06:47.472Z,99926.41
2022-10-22T08:09:33.920Z,99910.91
2022-10-22T08:12:19.369Z,99916.72
2022-10-22T08:15:06.328Z,99911.72
2022-10-22T08:17:52.098Z,99903.78
2022-10-22T08:20:38.217Z,99915.25
2022-10-22T08:23:27.496Z,99909.56
2022-10-22T08:26:14.586Z,99905.34
2022-10-22T08:28:59.956Z,99895.69
2022-10-22T08:31:46.037Z,99914.59
2022-10-22T08:34:31.530Z,99910.53
2022-10-22T08:37:17.912Z,99907.47
2022-10-22T08:40:04.706Z,99909.25
2022-10-22T08:43:04.829Z,99918.63
2022-10-22T08:46:01.505Z,99928.13
2022-10-22T08:49:13.037Z,99930.88
2022-10-22T08:51:59.623Z,99932.34
2022-10-22T08:54:52.266Z,99928.00
2022-10-22T08:57:42.778Z,99932.84
2022-10-22T09:00:54.051Z,99922.16
2022-10-22T09:03:51.307Z,99942.53
2022-10-22T09:06:38.148Z,99920.91
2022-10-22T09:09:36.139Z,99933.31
2022-10-22T09:12:22.878Z,99927.34
2022-10-22T09:15:13.751Z,99936.06
2022-10-22T09:18:05.508Z,99948.38
2022-10-22T09:20:58.549Z,99943.66
2022-10-22T09:23:50.642Z,99941.56
2022-10-22T09:26:38.090Z,99938.00
2022-10-22T09:29:31.979Z,99962.53
2022-10-22T09:32:18.767Z,99955.91
2022-10-22T09:35:04.931Z,99968.00
2022-10-22T09:37:55.510Z,99941.72
2022-10-22T09:40:45.884Z,99962.19
2022-10-22T09:43:32.806Z,99953.28
2022-10-22T09:46:21.760Z,99941.97
2022-10-22T09:49:13.804Z,99947.13
2022-10-22T09:52:00.942Z,99952.28
2022-10-22T09:54:46.671Z,99946.44
2022-10-22T09:57:32.844Z,99936.25
2022-10-22T10:00:19.268Z,99939.59
2022-10-22T10:03:04.975Z,99939.41
2022-10-22T10:05:54.759Z,99941.84
2022-10-22T10:08:40.588Z,99938.75
2022-10-22T10:11:37.613Z,99941.47
2022-10-22T10:14:37.823Z,99935.69
2022-10-22T10:17:40.186Z,99940.19
2022-10-22T10:21:07.897Z,99953.53
2022-10-22T10:24:12.432Z,99957.91
2022-10-22T10:27:01.075Z,99952.41
2022-10-22T10:30:01.453Z,99949.66
2022-10-22T10:33:06.267Z,99951.47
2022-10-22T10:36:03.135Z,99960.00
2022-10-22T10:38:54.896Z,99955.31
2022-10-22T10:41:40.550Z,99959.34
2022-10-22T10:45:00.262Z,99955.94
2022-10-22T10:48:10.896Z,99962.38
2022-10-22T10:51:28.603Z,99932.84
2022-10-22T10:54:29.704Z,99960.59
2022-10-22T10:57:34.546Z,99965.06
2022-10-22T11:00:21.574Z,99951.84
2022-10-22T11:03:46.528Z,99959.38
2022-10-22T11:06:34.219Z,99963.41
2022-10-22T11:09:30.368Z,99952.59
2022-10-22T11:12:23.522Z,99950.63
2022-10-22T11:15:19.546Z,99952.25
2022-10-22T11:18:20.998Z,99928.09
2022-10-22T11:21:13.357Z,99941.31
2022-10-22T11:24:08.416Z,99946.63
2022-10-22T11:26:56.490Z,99945.13
2022-10-22T11:29:47.446Z,99940.31
2022-10-22T11:32:33.597Z,99934.47
2022-10-22T11:35:27.211Z,99922.06
2022-10-22T11:38:17.400Z,99934.13
2022-10-22T11:41:11.608Z,99930.78
2022-10-22T11:44:07.823Z,99928.63
2022-10-22T11:46:53.457Z,99938.75
2022-10-22T11:49:55.081Z,99931.19
2022-10-22T11:52:46.065Z,99936.00
2022-10-22T11:55:34.500Z,99937.16
2022-10-22T11:58:29.613Z,99939.22
2022-10-22T12:01:45.218Z,99935.91
2022-10-22T12:04:41.540Z,99932.13
2022-10-22T12:07:47.083Z,99903.59
2022-10-22T12:10:48.782Z,99929.84
2022-10-22T12:13:58.796Z,99912.06
2022-10-22T12:16:58.090Z,99926.34
2022-10-22T12:19:50.162Z,99916.84
2022-10-22T12:22:39.372Z,99895.34
2022-10-22T12:25:35.479Z,99920.06
2022-10-22T12:28:21.731Z,99913.41
2022-10-22T12:31:16.149Z,99919.50
2022-10-22T12:34:01.718Z,99914.19
2022-10-22T12:36:48.902Z,99911.81
2022-10-22T12:39:35.607Z,99918.72
2022-10-22T12:42:24.028Z,99920.66
2022-10-22T12:45:09.957Z,99920.66
2022-10-22T12:47:58.258Z,99917.41
2022-10-22T12:50:47.361Z,99922.25
2022-10-22T12:53:33.451Z,99922.25
2022-10-22T12:56:48.341Z,99920.31
2022-10-22T12:59:38.383Z,99919.50
2022-10-22T13:02:26.647Z,99920.66
2022-10-22T13:05:17.248Z,99923.88
2022-10-22T13:08:04.383Z,99926.03
2022-10-22T13:10:53.176Z,99929.56
2022-10-22T13:13:38.796Z,99897.38
2022-10-22T13:16:27.762Z,99923.00
2022-10-22T13:19:42.500Z,99924.47
2022-10-22T13:22:39.921Z,99922.41
2022-10-22T13:25:38.574Z,99919.03
2022-10-22T13:28:25.150Z,99931.19
2022-10-22T13:31:32.254Z,99909.09
2022-10-22T13:34:19.974Z,99915.75
2022-10-22T13:37:09.270Z,99928.97
2022-10-22T13:39:56.001Z,99932.88
2022-10-22T13:42:41.973Z,99934.31
2022-10-22T13:45:29.288Z,99930.31
2022-10-22T13:48:16.600Z,99936.97
2022-10-22T13:51:03.162Z,99930.16
2022-10-22T13:53:50.995Z,99929.56
2022-10-22T13:56:37.217Z,99931.50
2022-10-22T13:59:23.892Z,99929.63
2022-10-22T14:02:14.367Z,99931.25
2022-10-22T14:05:03.301Z,99946.78
2022-10-22T14:07:49.807Z,99948.72
2022-10-22T14:10:35.589Z,99939.03
2022-10-22T14:13:21.939Z,99953.41
2022-10-22T14:16:11.500Z,99941.31
2022-10-22T14:18:57.887Z,99945.84
2022-10-22T14:21:43.897Z,99949.38
2022-10-22T14:24:29.976Z,99939.84
2022-10-22T14:27:15.603Z,99947.94
2022-10-22T14:30:01.281Z,99949.75
2022-10-22T14:32:48.842Z,99958.28
2022-10-22T14:35:34.693Z,99949.56
2022-10-22T14:38:20.392Z,99959.13
2022-10-22T14:41:17.058Z,99955.53
2022-10-22T14:44:03.257Z,99949.28
2022-10-22T14:46:50.179Z,99961.03
2022-10-22T14:49:35.781Z,99956.00
2022-10-22T14:52:21.934Z,99960.25
2022-10-22T14:55:12.240Z,99962.19
2022-10-22T14:57:58.262Z,99957.97
2022-10-22T15:00:44.034Z,99966.22
2022-10-22T15:03:30.436Z,99964.81
2022-10-22T15:06:15.864Z,99973.53
2022-10-22T15:09:02.426Z,99964.31
2022-10-22T15:11:48.277Z,99969.47
2022-10-22T15:14:34.162Z,99968.69
2022-10-22T15:17:19.834Z,99982.06
2022-10-22T15:20:06.219Z,99978.38
2022-10-22T15:22:51.866Z,99966.25
2022-10-22T15:25:38.261Z,99982.72
2022-10-22T15:28:24.410Z,99989.84
2022-10-22T15:31:14.173Z,99986.28
2022-10-22T15:34:01.792Z,99979.69
2022-10-22T15:36:48.004Z,99993.56
2022-10-22T15:39:34.089Z,100002.66
2022-10-22T15:42:20.107Z,100002.97
2022-10-22T15:45:06.423Z,100000.06
2022-10-22T15:47:52.461Z,100001.34
2022-10-22T15:50:38.870Z,100007.03
2022-10-22T15:53:24.666Z,99992.69
2022-10-22T15:56:11.840Z,100013.84
2022-10-22T15:59:05.151Z,100023.97
2022-10-22T16:01:51.572Z,100033.38
2022-10-22T16:04:38.433Z,100037.09
2022-10-22T16:07:24.927Z,100035.16
2022-10-22T16:10:12.885Z,100034.34
2022-10-22T16:12:58.874Z,100029.69
2022-10-22T16:15:44.720Z,100036.31
2022-10-22T16:18:30.273Z,100032.78
2022-10-22T16:21:16.128Z,100043.91
2022-10-22T16:24:06.102Z,100035.06
2022-10-22T16:26:53.350Z,100036.13
2022-10-22T16:29:39.686Z,100056.06
2022-10-22T16:32:25.654Z,100056.22
2022-10-22T16:35:11.094Z,100037.00
2022-10-22T16:37:57.152Z,100064.47
2022-10-22T16:40:42.659Z,100060.22
2022-10-22T16:43:29.266Z,100064.78
2022-10-22T16:46:16.310Z,100072.38
2022-10-22T16:49:02.897Z,100056.06
2022-10-22T16:51:48.435Z,100074.81
2022-10-22T16:54:34.000Z,100077.22
2022-10-22T16:57:19.501Z,100061.06
2022-10-22T17:00:06.405Z,100075.59
2022-10-22T17:02:53.425Z,100085.94
2022-10-22T17:05:39.588Z,100074.00
2022-10-22T17:08:25.629Z,100064.47
2022-10-22T17:11:13.795Z,100081.59
2022-10-22T17:13:59.225Z,100088.69
2022-10-22T17:16:48.974Z,100090.78
2022-10-22T17:19:38.660Z,100091.13
2022-10-22T17:22:24.813Z,100093.41
2022-10-22T17:25:17.822Z,100099.84
2022-10-22T17:28:03.923Z,100090.31
2022-10-22T17:30:49.473Z,100104.22
2022-10-22T17:33:36.338Z,100108.25
2022-10-22T17:36:24.158Z,100111.47
2022-10-22T17:39:13.961Z,100083.72
2022-10-22T17:41:59.475Z,100107.13
2022-10-22T17:44:45.572Z,100085.66
2022-10-22T17:47:31.064Z,100120.88
2022-10-22T17:50:17.122Z,100122.66
2022-10-22T17:53:02.613Z,100123.63
2022-10-22T17:55:48.688Z,100118.59
2022-10-22T17:58:34.237Z,100120.22
2022-10-22T18:01:22.082Z,100120.38
2022-10-22T18:04:08.716Z,100118.44
2022-10-22T18:06:55.016Z,100110.53
2022-10-22T18:09:40.838Z,100114.09
2022-10-22T18:12:26.554Z,100125.88
2022-10-22T18:15:12.037Z,100139.31
2022-10-22T18:17:57.888Z,100129.28
2022-10-22T18:20:48.982Z,100131.69
2022-10-22T18:23:34.941Z,100137.03
2022-10-22T18:26:25.807Z,100124.44
2022-10-22T18:29:16.071Z,100122.47
2022-10-22T18:32:01.669Z,100126.38
2022-10-22T18:34:48.159Z,100132.03
2022-10-22T18:37:36.093Z,100144.16
2022-10-22T18:40:22.405Z,100133.81
2022-10-22T18:43:08.225Z,100138.31
2022-10-22T18:45:54.071Z,100140.59
2022-10-22T18:48:39.687Z,100144.16
2022-10-22T18:51:30.525Z,100118.28
2022-10-22T18:54:23.227Z,100152.06
2022-10-22T18:57:09.646Z,100145.31
2022-10-22T18:59:58.578Z,100153.22
2022-10-22T19:02:45.369Z,100150.47
2022-10-22T19:05:31.075Z,100161.16
2022-10-22T19:08:18.109Z,100161.16
2022-10-22T19:11:10.340Z,100153.88
2022-10-22T19:13:56.430Z,100168.75
2022-10-22T19:16:42.011Z,100156.44
2022-10-22T19:19:28.139Z,100165.19
2022-10-22T19:22:14.001Z,100170.69
2022-10-22T19:24:59.573Z,100158.06
2022-10-22T19:27:45.431Z,100165.53
2022-10-22T19:30:31.822Z,100180.72
2022-10-22T19:33:17.728Z,100159.56
2022-10-22T19:36:06.959Z,100178.63
2022-10-22T19:38:52.544Z,100183.66
2022-10-22T19:41:38.902Z,100179.63
2022-10-22T19:44:24.867Z,100200.31
2022-10-22T19:47:11.532Z,100196.28
2022-10-22T19:49:57.164Z,100195.47
2022-10-22T19:52:43.380Z,100206.63
2022-10-22T19:55:29.342Z,100206.13
2022-10-22T19:58:15.942Z,100198.06
2022-10-22T20:01:09.269Z,100208.75
2022-10-22T20:03:55.526Z,100232.69
2022-10-22T20:06:41.008Z,100229.75
2022-10-22T20:09:27.073Z,100235.75
2022-10-22T20:12:12.732Z,100235.75
2022-10-22T20:14:58.803Z,100218.13
2022-10-22T20:17:45.383Z,100218.44
2022-10-22T20:20:37.685Z,100234.47
2022-10-22T20:23:23.529Z,100243.03
2022-10-22T20:26:09.733Z,100240.47
2022-10-22T20:28:56.276Z,100242.06
2022-10-22T20:31:42.730Z,100234.63
2022-10-22T20:34:28.739Z,100240.78
2022-10-22T20:37:14.387Z,100236.75
2022-10-22T20:39:59.956Z,100245.97
2022-10-22T20:42:47.239Z,100247.56
2022-10-22T20:45:32.725Z,100231.88
2022-10-22T20:48:18.602Z,100243.03
2022-10-22T20:51:05.007Z,100241.59
2022-10-22T20:53:51.480Z,100243.84
2022-10-22T20:56:39.117Z,100243.69
2022-10-22T20:59:32.382Z,100250.31
2022-10-22T21:02:18.035Z,100251.47
2022-10-22T21:05:03.768Z,100249.22
2022-10-22T21:07:49.268Z,100257.28
2022-10-22T21:10:35.002Z,100247.91
2022-10-22T21:13:20.579Z,100253.41
2022-10-22T21:16:11.444Z,100265.84
2022-10-22T21:18:57.157Z,100275.25
2022-10-22T21:21:42.621Z,100257.94
2022-10-22T21:24:28.159Z,100252.09
2022-10-22T21:27:13.963Z,100262.31
2022-10-22T21:30:00.394Z,100269.91
2022-10-22T21:32:46.405Z,100252.91
2022-10-22T21:35:33.349Z,100268.59
2022-10-22T21:38:19.833Z,100264.88
2022-10-22T21:41:07.304Z,100256.59
2022-10-22T21:43:53.158Z,100255.13
2022-10-22T21:46:38.616Z,100253.97
2022-10-22T21:49:24.973Z,100256.56
2022-10-22T21:52:10.428Z,100274.81
2022-10-22T21:54:56.855Z,100267.97
2022-10-22T21:57:42.718Z,100274.59
2022-10-22T22:00:28.872Z,100271.16
2022-10-22T22:03:14.566Z,100280.19
2022-10-22T22:06:02.154Z,100283.06
2022-10-22T22:08:48.323Z,100265.22
2022-10-22T22:11:34.380Z,100277.50
2022-10-22T22:14:19.730Z,100284.25
2022-10-22T22:17:05.635Z,100285.69
2022-10-22T22:19:51.011Z,100291.81
2022-10-22T22:22:36.874Z,100294.38
2022-10-22T22:25:22.274Z,100283.22
2022-10-22T22:28:07.969Z,100286.38
2022-10-22T22:30:53.464Z,100300.31
2022-10-22T22:33:39.717Z,100295.88
2022-10-22T22:36:25.193Z,100305.59
2022-10-22T22:39:12.705Z,100310.59
2022-10-22T22:41:59.502Z,100316.72
2022-10-22T22:44:46.463Z,100310.06
2022-10-22T22:47:32.286Z,100310.97
2022-10-22T22:50:18.471Z,100310.19
2022-10-22T22:53:03.899Z,100308.97
2022-10-22T22:55:50.416Z,100311.94
2022-10-22T22:58:37.807Z,100317.59
2022-10-22T23:01:29.751Z,100304.00
2022-10-22T23:04:19.090Z,100319.22
2022-10-22T23:07:05.008Z,100308.44
2022-10-22T23:09:50.406Z,100326.44
2022-10-22T23:12:36.216Z,100319.53
2022-10-22T23:15:21.953Z,100327.13
2022-10-22T23:18:07.460Z,100319.38
2022-10-22T23:20:53.417Z,100318.75
2022-10-22T23:23:43.052Z,100319.59
2022-10-22T23:26:49.465Z,100318.47
2022-10-22T23:29:36.425Z,100317.00
2022-10-22T23:32:21.992Z,100313.47
2022-10-22T23:35:09.490Z,100298.56
2022-10-22T23:37:54.951Z,100298.22
2022-10-22T23:40:40.701Z,100309.28
2022-10-22T23:43:27.113Z,100312.50
2022-10-22T23:46:14.198Z,100328.34
2022-10-22T23:49:00.466Z,100322.38
2022-10-22T23:51:46.619Z,100320.75
2022-10-22T23:54:32.335Z,100321.06
2022-10-22T23:57:18.759Z,100332.72
